Tiempo atmosférico en la estación meteorológica de Cáceres, Cáceres (405 m.)

Fecha
DESCASC
Temp. máxima en grados centígrados (hora)
DESCASC
Temp. mínima en grados centígrados (hora)
DESCASC
Temp. media en grados centígrados
DESCASC
Racha de viento máxima en m/sg (hora)
DESCASC
Velocidad máxima media en intervalos de 10 minutos(hora)
DESCASC
Precipitaciones diarias en mm
DESCASC
Precipitaciones de 00:00 a 06:00 en mm
DESCASC
Precipitaciones de 06:00 a 12:00 en mm
DESCASC
Precipitaciones de 12:00 a 18:00 en mm
DESCASC
Precipitaciones de 18:00 a 24:00 en mm
DESCASC
23-11-2017 20.9 (15:00) 11.4 (23:40) 16.1 13.33 (01:40) 7.78 (05:50) 2.4 0 0 0 2.4
22-11-2017 21.5 (15:50) 4.9 (06:30) 13.2 11.11 (21:30) 6.39 (21:20) 0 0 0 0 0
21-11-2017 22.6 (15:30) 3.7 (07:30) 13.2 6.39 (16:00) 3.61 (15:10) 0 0 0 0 0
20-11-2017 21 (16:20) 3.4 (07:30) 12.2 3.89 (15:00) 2.22 (18:30) 0 0 0 0 0
19-11-2017 20.8 (15:50) 4.7 (00:00) 12.7 3.33 (15:40) 2.22 (18:20) 0 0 0 0 0
18-11-2017 20.3 (16:10) 3.9 (00:00) 12.1 3.06 (13:20) 2.22 (18:50) 0 0 0 0 0
17-11-2017 20.4 (16:30) 4.8 (00:00) 12.6 3.89 (15:20) 2.78 (19:20) 0 0 0 0 0
16-11-2017 19 (16:10) 3.5 (00:00) 11.3 3.89 (15:10) 2.22 (18:40) 0 0 0 0 0
15-11-2017 18.3 (16:00) 2.9 (00:00) 10.6 3.61 (13:30) 2.5 (22:50) 0 0 0 0 0
14-11-2017 15.5 (17:10) 3 (00:00) 9.3 3.61 (12:00) 2.22 (12:10) 0 0 0 0 0
13-11-2017 18.8 (14:10) 6.6 (00:00) 12.7 10 (14:30) 5.83 (14:30) 0 0 0 0 0
12-11-2017 21.2 (16:40) 6.2 (00:00) 13.7 7.78 (16:40) 4.44 (17:10) 0 0 0 0 0
11-11-2017 20 (16:10) 7.9 (00:00) 14 6.11 (22:10) 4.17 (22:10) 0 0 0 0 0
10-11-2017 19.5 (16:20) 4.4 (00:00) 12 6.11 (17:00) 3.06 (17:00) 0 0 0 0 0
09-11-2017 14.6 (16:00) 3.7 (00:00) 9.2 7.22 (16:20) 3.89 (16:10) 0 0 0 0 0
08-11-2017 17.7 (15:20) 7.3 (00:00) 12.5 9.72 (17:00) 5.28 (18:00) 0 0 0 0 0
07-11-2017 19.8 (16:10) 5.1 (00:00) 12.4 7.22 (13:10) 4.44 (12:40) 0 0 0 0 0
06-11-2017 17.5 (15:50) 5.6 (00:00) 11.5 4.17 (16:20) 2.5 (10:40) 0 0 0 0 0
05-11-2017 17.9 (16:00) 9.8 (00:00) 13.8 10.56 (15:10) 5.83 (17:10) 0 0 0 0 0
04-11-2017 17.3 (16:20) 12.8 (00:00) 15 10.56 (02:10) 5.83 (03:40) 9.4 7.2 2.2 0 0
03-11-2017 19.5 (14:10) 13.5 (00:00) 16.5 8.89 (01:40) 5.28 (23:40) 10 8.4 0 0 1.6
02-11-2017 19.6 (13:20) 15.1 (23:40) 17.4 9.44 (12:10) 5.83 (12:00) 2.6 0 0 0.6 2
01-11-2017 23.2 (16:00) 11.5 (00:00) 17.4 8.89 (04:10) 6.67 (04:10) 0 0 0 0 0
31-10-2017 24.2 (15:10) 8.8 (00:00) 16.5 7.22 (14:00) 4.17 (14:00) 0 0 0 0 0
30-10-2017 23.5 (16:10) 8.3 (00:00) 15.9 5.56 (14:20) 2.78 (16:30) 0 0 0 0 0
29-10-2017 25.6 (16:40) 10.7 (00:00) 18.2 3.89 (14:40) 2.5 (14:40) 0 0 0 0 0
28-10-2017 26.8 (15:50) 13.2 (00:00) 20 5.83 (16:50) 3.89 (16:50) 0 0 0 0 0
27-10-2017 29.7 (16:50) 13.2 (00:00) 21.5 6.39 (17:30) 3.61 (15:50) 0 0 0 0 0
26-10-2017 28.1 (17:20) 11.8 (00:00) 20 8.89 (01:10) 6.39 (01:10) 0 0 0 0 0
25-10-2017 28 (17:00) 10.3 (00:00) 19.2 9.44 (14:40) 5 (13:00) 0 0 0 0 0

Gráficas

Temp. máximas Temp. mínimas Temp. medias Precipitaciones Rachas de viento máximas Velocidades máximas media en intervalos de 10 minutos

Datos horarios

Fecha y hora oficial Temperatura (ºC) Velocidad del viento (km/h) Dirección del viento Racha (km/h) Dirección de racha Precipitación (mm) Presión (hPa) Tendencia (hPa) Humedad (%)
2017-11-23 23:00:00 11.9 0 Calma 21 Oeste 1.4 974.5 1.9 86
2017-11-23 22:00:00 13.2 9 Oeste 21 Sur 0.2 973.8 1.7 70
2017-11-23 21:00:00 15.2 13 Sur 28 Sur 0.8 973.2 1.7 58
2017-11-23 20:00:00 18.3 14 Sudeste 27 Sudeste 0 972.6 0.9 34
2017-11-23 19:00:00 18.2 14 Sudeste 25 Sur 0 972.1 0.6 36
2017-11-23 18:00:00 18.1 19 Sudeste 27 Sur 0 971.5 -0.3 39
2017-11-23 17:00:00 19.2 14 Sudeste 28 Sudeste 0 971.7 -0.4 34
2017-11-23 16:00:00 20 15 Sudeste 30 Sudeste 0 971.5 -1 32
2017-11-23 15:00:00 20.9 14 Sur 27 Sudeste 0 971.8 -0.9 29
2017-11-23 14:00:00 18.9 13 Sudeste 28 Sur 0 972.1 -0.3 35
2017-11-23 13:00:00 18.3 19 Sur 31 Sur 0 972.5 0.6 38
2017-11-23 12:00:00 17.7 23 Sur 36 Sur 0 972.7 1.7 41
2017-11-23 11:00:00 16.6 15 Sur 32 Sur 0 972.4 2.4 42
2017-11-23 10:00:00 15.7 20 Sur 29 Sur 0 971.9 2.3 42
2017-11-23 09:00:00 15.4 22 Sur 31 Sur 0 971 1.8 43
2017-11-23 08:00:00 15.1 21 Sur 34 Sur 0 970 1.1 40
2017-11-23 07:00:00 15.5 24 Sur 39 Sur 0 969.6 0.8 39
2017-11-23 06:00:00 15.7 25 Sur 44 Sur 0 969.2 0.6 41
2017-11-23 05:00:00 15.5 27 Sur 44 Sur 0 968.9 0.3 39
2017-11-23 04:00:00 15.9 25 Sur 45 Sur 0 968.8 0.2 36
2017-11-23 03:00:00 16 24 Sur 39 Sur 0 968.6 0.1 34
2017-11-23 02:00:00 16.3 23 Sur 48 Sur 0 968.6 0.2 33
2017-11-23 01:00:00 16.5 25 Sur 47 Sur 0 968.6 0.3 31
2017-11-23 00:00:00 16.8 22 Sur 35 Sur 0 968.5 0.4 31
2017-11-22 23:00:00 17.3 18 Sur 38 Sudoeste 0 968.4 0.4 31
2017-11-22 22:00:00 17.8 15 Sudoeste 40 Sur 0 968.3 0.4 29
2017-11-22 21:00:00 17.9 18 Sur 27 Sur 0 968.1 0.5 30
2017-11-22 20:00:00 17.4 13 Sur 23 Sur 0 968 0.3 30
2017-11-22 19:00:00 17.5 10 Sudeste 18 Sudeste 0 967.9 -0.1 30
2017-11-22 18:00:00 18.4 10 Sudeste 23 Sur 0 967.6 -0.9 28
2017-11-22 17:00:00 19.8 15 Sur 23 Sur 0 967.7 -1.4 25
2017-11-22 16:00:00 21.3 12 Sur 22 Sur 0 968 -1.9 23
2017-11-22 15:00:00 21.4 11 Sur 28 Sur 0 968.5 -2.2 22
2017-11-22 14:00:00 20.4 15 Sur 24 Sur 0 969.1 -1.6 24
2017-11-22 13:00:00 17.9 4 Este 8 Sudoeste 0 969.9 -1.1 32
2017-11-22 12:00:00 14.3 5 Norte 10 Norte 0 970.7 0 46
2017-11-22 11:00:00 13.1 4 Nordeste 10 Este 0 970.7 0.1 49
2017-11-22 10:00:00 8.4 0 Calma 8 Noroeste 0 971 0.5 61
2017-11-22 09:00:00 5.2 2 Noroeste 6 Noroeste 0 970.7 0 71
2017-11-22 08:00:00 5.3 2 Oeste 9 Noroeste 0 970.6 -0.3 68
2017-11-22 07:00:00 5.5 0 Calma 4 Oeste 0 970.5 -0.5 66
2017-11-22 06:00:00 5.4 3 Oeste 6 Oeste 0 970.7 -1 67
2017-11-22 05:00:00 6 0 Calma 5 Sudoeste 0 970.9 -0.9 64
2017-11-22 04:00:00 6.2 3 Sudeste 5 Sudeste 0 971 -1.5 64
2017-11-22 03:00:00 6.2 3 Noroeste 8 Noroeste 0 971.7 -1.2 63
2017-11-22 02:00:00 7.5 3 Oeste 12 Noroeste 0 971.8 -1.2 57
2017-11-22 01:00:00 8.1 0 Calma 6 Oeste 0 972.5 -0.5 55
2017-11-22 00:00:00 8.4 3 Oeste 6 Oeste 0 972.9 -0.4 54
2017-11-21 23:00:00 9.8 4 Noroeste 8 Noroeste 0 973 -0.1 48
2017-11-21 22:00:00 10.3 0 Calma 8 Sudeste 0 973 -0.2 47
2017-11-21 21:00:00 9.6 5 Sudoeste 10 Sudoeste 0 973.3 0.1 51
2017-11-21 20:00:00 11 5 Sudoeste 10 Sudoeste 0 973.1 -0.3 44
2017-11-21 19:00:00 12.6 5 Sudoeste 12 Oeste 0 973.2 0 40
2017-11-21 18:00:00 16.1 8 Sur 10 Sur 0 973.2 -0.4 32
2017-11-21 17:00:00 22.1 5 Sudoeste 18 Sur 0 973.4 -1.2 21
2017-11-21 16:00:00 22.4 12 Sur 23 Sur 0 973.2 -2.5 17
2017-11-21 15:00:00 22.1 11 Sudeste 19 Sudeste 0 973.6 -2.9 22
2017-11-21 14:00:00 19.1 5 Nordeste 9 Nordeste 0 974.6 -2 34
2017-11-21 13:00:00 17.2 3 Norte 7 Norte 0 975.7 -1 40
2017-11-21 12:00:00 14.2 3 Norte 6 Noroeste 0 976.5 0 48
2017-11-21 11:00:00 11.2 3 Norte 5 Noroeste 0 976.6 0.4 58
2017-11-21 10:00:00 7.8 2 Norte 4 Norte 0 976.7 0.7 68
2017-11-21 09:00:00 4.9 2 Sudoeste 4 Noroeste 0 976.5 0.9 77
2017-11-21 08:00:00 3.7 0 Calma 5 Noroeste 0 976.2 0.5 78
2017-11-21 07:00:00 4.6 3 Oeste 7 Oeste 0 976 -0.1 74
2017-11-21 06:00:00 6.3 3 Sudoeste 5 Sur 0 975.6 -0.7 66
2017-11-21 05:00:00 6 3 Este 4 Oeste 0 975.7 -0.7 73
2017-11-21 04:00:00 6.4 4 Noroeste 6 Oeste 0 976.1 -0.5 69
2017-11-21 03:00:00 6.7 3 Sudeste 7 Noroeste 0 976.3 -0.5 67
2017-11-21 02:00:00 9.4 0 Calma 9 Sur 0 976.4 -0.4 55
2017-11-21 01:00:00 9.6 4 Sur 6 Sur 0 976.6 -0.2 53
2017-11-21 00:00:00 9.7 2 Sudoeste 7 Sur 0 976.8 0.3 53
2017-11-20 23:00:00 10.2 4 Sur 6 Sur 0 976.8 0.6 53
2017-11-20 22:00:00 10.2 4 Sudoeste 7 Sudoeste 0 976.8 0.9 57
2017-11-20 21:00:00 10.4 4 Sur 6 Sudoeste 0 976.5 0.8 55
2017-11-20 20:00:00 11.4 4 Sudoeste 9 Sudoeste 0 976.2 0.5 53
2017-11-20 19:00:00 12.5 7 Sudoeste 10 Sudoeste 0 975.9 0.1 45
2017-11-20 18:00:00 14.4 6 Sudoeste 8 Sudoeste 0 975.7 -0.5 41
2017-11-20 17:00:00 20.6 3 Noroeste 10 Nordeste 0 975.7 -1.2 29
2017-11-20 16:00:00 20.9 6 Nordeste 10 Este 0 975.8 -1.9 25
2017-11-20 15:00:00 20.5 7 Nordeste 14 Este 0 976.2 -2.3 26
2017-11-20 14:00:00 19.2 5 Nordeste 9 Este 0 976.9 -1.6 33
2017-11-20 13:00:00 17.1 5 Nordeste 9 Este 0 977.7 -0.2 38
2017-11-20 12:00:00 14.3 -- -- -- -- 0 978.5 1.1 48
2017-11-20 11:00:00 11.6 -- -- -- -- -- 978.5 1.8 58
2017-11-20 10:00:00 8.2 0 Calma 4 Nordeste 0 977.9 1.4 72
2017-11-20 09:00:00 4.2 0 Calma 4 Noroeste 0 977.4 1.2 86
2017-11-20 08:00:00 3.7 0 Calma 5 Oeste 0 976.7 0.7 88
2017-11-20 07:00:00 3.9 3 Noroeste 6 Oeste 0 976.5 0.5 81
2017-11-20 06:00:00 4.9 0 Calma 6 Oeste 0 976.2 -0.2 79
2017-11-20 05:00:00 5.7 4 Oeste 8 Oeste 0 976 -0.4 73
2017-11-20 04:00:00 7.1 4 Sudoeste 5 Sudoeste 0 976 -0.4 71
2017-11-20 03:00:00 6.3 2 Sudeste 10 Oeste 0 976.4 -0.1 74
2017-11-20 02:00:00 7.2 3 Sudoeste 11 Sur 0 976.4 0 69
2017-11-20 01:00:00 7.6 7 Sur 12 Sur 0 976.4 0.2 70
2017-11-20 00:00:00 8.3 3 Sudoeste 5 Sudoeste 0 976.5 0.7 67
2017-11-19 23:00:00 9.6 3 Sur 7 Sur 0 976.4 0.8 61
2017-11-19 22:00:00 10.4 5 Sur 7 Sur 0 976.2 1 60
2017-11-19 21:00:00 10.3 5 Sudoeste 7 Sudoeste 0 975.8 1.1 59
2017-11-19 20:00:00 11 5 Sur 8 Sudoeste 0 975.6 1.1 54
2017-11-19 19:00:00 12.1 7 Sudoeste 9 Sudoeste 0 975.2 0.8 51
2017-11-19 18:00:00 14.2 6 Sudoeste 8 Sudoeste 0 974.7 0 45
2017-11-19 17:00:00 20.3 5 Norte 11 Noroeste 0 974.5 -0.5 30
2017-11-19 16:00:00 20.6 6 Norte 12 Norte 0 974.4 -1.4 30
2017-11-19 15:00:00 20.2 4 Nordeste 11 Norte 0 974.7 -1.5 31
2017-11-19 14:00:00 19.4 3 Noroeste 10 Este 0 975 -1 33
2017-11-19 13:00:00 17 4 Nordeste 9 Norte 0 975.8 0 40
2017-11-19 12:00:00 14.6 5 Nordeste 9 Nordeste 0 976.2 0.9 51
2017-11-19 11:00:00 12.6 3 Sudeste 8 Nordeste 0 976 1.1 56
2017-11-19 10:00:00 10.1 3 Sudeste 7 Este 0 975.8 1.5 64
2017-11-19 09:00:00 6.6 3 Sur 6 Sur 0 975.3 1.3 79
2017-11-19 08:00:00 4.9 2 Sudoeste 5 Sudoeste 0 974.9 1.3 82
2017-11-19 07:00:00 5.3 3 Sur 6 Sur 0 974.3 0.7 81
2017-11-19 06:00:00 5.3 4 Oeste 5 Oeste 0 974 0.3 80
2017-11-19 05:00:00 6.5 2 Sudoeste 4 Sudoeste 0 973.6 0 75
2017-11-19 04:00:00 7.5 3 Sur 6 Sudeste 0 973.6 -0.2 72
2017-11-19 03:00:00 8.2 3 Sur 4 Sur 0 973.7 -0.1 68
2017-11-19 02:00:00 8.5 4 Sudoeste 6 Sudoeste 0 973.6 -0.1 67
2017-11-19 01:00:00 8.5 0 Calma 7 Sudoeste 0 973.8 0.1 69
2017-11-19 00:00:00 9.2 3 Sur 6 Sur 0 973.8 0.3 67
2017-11-18 23:00:00 9.7 4 Sur 6 Sudoeste 0 973.7 0.4 64
2017-11-18 22:00:00 10 4 Sur 7 Sudoeste 0 973.7 0.8 62
2017-11-18 21:00:00 10.7 5 Sudoeste 8 Sudoeste 0 973.5 0.8 59
2017-11-18 20:00:00 11.5 6 Sudoeste 10 Sudoeste 0 973.3 0.9 54
2017-11-18 19:00:00 12.1 6 Sudoeste 10 Sudoeste 0 972.9 0.5 50
2017-11-18 18:00:00 14.1 8 Sudoeste 10 Sudoeste 0 972.7 0.1 45
2017-11-18 17:00:00 19.9 3 Oeste 8 Norte 0 972.4 -0.9 35
2017-11-18 16:00:00 20.2 5 Norte 10 Nordeste 0 972.4 -1.5 31
2017-11-18 15:00:00 19.4 4 Nordeste 9 Norte 0 972.6 -1.8 31
2017-11-18 14:00:00 18 4 Norte 11 Norte 0 973.3 -1.1 37
2017-11-18 13:00:00 16.2 5 Norte 10 Noroeste 0 973.9 -0.5 44
2017-11-18 12:00:00 14.2 3 Nordeste 7 Este 0 974.4 0.5 47
2017-11-18 11:00:00 11.3 3 Norte 5 Norte 0 974.4 0.7 60
2017-11-18 10:00:00 8.5 0 Calma 5 Noroeste 0 974.4 1.1 66
2017-11-18 09:00:00 5.3 2 Sudeste 5 Sur 0 973.9 0.8 80
2017-11-18 08:00:00 4 3 Sudoeste 6 Noroeste 0 973.7 0.7 84
2017-11-18 07:00:00 5 0 Calma 5 Sur 0 973.3 0.1 80
2017-11-18 06:00:00 5.1 0 Calma 4 Oeste 0 973.1 0.1 77
2017-11-18 05:00:00 5.6 4 Oeste 6 Oeste 0 973 -0.2 76
2017-11-18 04:00:00 6.4 3 Sur 4 Sudoeste 0 973.2 -0.3 72
2017-11-18 03:00:00 6.9 0 Calma 8 Oeste 0 973 -0.5 70
2017-11-18 02:00:00 8.3 2 Sudoeste 7 Sudoeste 0 973.2 -0.6 64
2017-11-18 01:00:00 10.5 6 Sudoeste 9 Sudoeste 0 973.5 -0.3 56
2017-11-18 00:00:00 11 7 Sudoeste 10 Sudoeste 0 973.5 0.1 52
2017-11-17 23:00:00 11.3 6 Sudoeste 11 Sudoeste 0 973.8 0.5 52
2017-11-17 22:00:00 11.2 7 Sudoeste 10 Sudoeste 0 973.8 0.8 53
2017-11-17 21:00:00 12 7 Sudoeste 10 Sudoeste 0 973.4 0.5 49
2017-11-17 20:00:00 12.4 7 Sudoeste 12 Sudoeste 0 973.3 0.6 48
2017-11-17 19:00:00 12.5 9 Sudoeste 11 Sudoeste 0 973 0 49
2017-11-17 18:00:00 14.6 8 Sudoeste 9 Sudoeste 0 972.9 -0.5 43
2017-11-17 17:00:00 20.2 6 Norte 13 Noroeste 0 972.7 -1.3 28
2017-11-17 16:00:00 20.2 9 Noroeste 14 Noroeste 0 973 -1.8 28
2017-11-17 15:00:00 19.8 8 Noroeste 13 Norte 0 973.4 -2.2 32
2017-11-17 14:00:00 18.1 6 Norte 10 Norte 0 974 -1.5 41
2017-11-17 13:00:00 15.7 5 Nordeste 9 Norte 0 974.8 -0.5 48
2017-11-17 12:00:00 13.5 4 Norte 8 Norte 0 975.6 0.7 53
2017-11-17 11:00:00 11.9 4 Norte 8 Norte 0 975.5 1 59
2017-11-17 10:00:00 9.2 2 Norte 4 Norte 0 975.3 1.1 68
2017-11-17 09:00:00 6.3 3 Sudoeste 6 Sudeste 0 974.9 0.9 80
2017-11-17 08:00:00 6.7 6 Sudeste 8 Este 0 974.5 0.4 75
2017-11-17 07:00:00 5.3 2 Sudeste 4 Sur 0 974.2 -0.1 81
2017-11-17 06:00:00 5.2 0 Calma 7 Oeste 0 974 -0.2 81
2017-11-17 05:00:00 5.3 0 Calma 6 Oeste 0 974.1 -0.2 78
2017-11-17 04:00:00 6 0 Calma 3 Sur 0 974.3 -0.2 73
2017-11-17 03:00:00 5.9 3 Sur 8 Oeste 0 974.2 -0.4 73
2017-11-17 02:00:00 6.1 2 Sudoeste 10 Oeste 0 974.3 -0.3 70
2017-11-17 01:00:00 7.5 2 Sur 7 Sudoeste 0 974.5 0 67
2017-11-17 00:00:00 8.5 3 Sudoeste 6 Sudoeste 0 974.6 0.2 61
2017-11-16 23:00:00 9 5 Sudoeste 6 Sudoeste 0 974.6 0.6 61
2017-11-16 22:00:00 9.4 5 Sudoeste 7 Sudoeste 0 974.5 0.8 60
2017-11-16 21:00:00 9.7 5 Sudoeste 8 Sudoeste 0 974.4 1.2 58
2017-11-16 20:00:00 10.8 6 Sudoeste 10 Sudoeste 0 974 0.9 53
2017-11-16 19:00:00 11.2 6 Sudoeste 9 Sudoeste 0 973.7 0.5 51
2017-11-16 18:00:00 13.5 6 Sudoeste 8 Este 0 973.2 -0.2 44
2017-11-16 17:00:00 18.6 5 Este 11 Norte 0 973.1 -0.6 30
2017-11-16 16:00:00 18.8 5 Norte 14 Norte 0 973.2 -1.4 30
2017-11-16 15:00:00 18.4 5 Nordeste 10 Nordeste 0 973.4 -1.8 31
2017-11-16 14:00:00 17.4 4 Este 9 Norte 0 973.7 -1.6 33
2017-11-16 13:00:00 16 4 Nordeste 9 Nordeste 0 974.6 -0.5 36
2017-11-16 12:00:00 13.6 3 Norte 7 Norte 0 975.2 0.9 43
2017-11-16 11:00:00 10.8 2 Nordeste 4 Norte 0 975.3 1.5 57
2017-11-16 10:00:00 7.9 0 Calma 4 Noroeste 0 975.1 1.7 64
2017-11-16 09:00:00 5.2 0 Calma 5 Sudoeste 0 974.3 1.1 73
2017-11-16 08:00:00 4.2 2 Sur 4 Sudeste 0 973.8 0.9 74
2017-11-16 07:00:00 3.5 0 Calma 6 Oeste 0 973.4 0.4 78
2017-11-16 06:00:00 4 4 Oeste 7 Oeste 0 973.2 0.1 76
2017-11-16 05:00:00 6 0 Calma 8 Sudoeste 0 972.9 -0.3 67
2017-11-16 04:00:00 6.2 4 Sudoeste 7 Sudoeste 0 973 -0.3 66
2017-11-16 03:00:00 6.8 3 Sur 8 Sudoeste 0 973.1 0 64
2017-11-16 02:00:00 6.3 4 Sudoeste 6 Sudoeste 0 973.2 0 65
2017-11-16 01:00:00 7.3 4 Sudoeste 9 Sudoeste 0 973.3 0 61
2017-11-16 00:00:00 8.9 6 Sudoeste 9 Sudoeste 0 973.1 -0.1 52
2017-11-15 23:00:00 9 7 Sudoeste 11 Sudoeste 0 973.2 0.2 50
2017-11-15 22:00:00 9.1 7 Sudoeste 9 Sudoeste 0 973.3 0.6 50
2017-11-15 21:00:00 8.9 7 Sudoeste 9 Sudoeste 0 973.2 0.8 47
2017-11-15 20:00:00 9.7 8 Sudoeste 10 Sudoeste 0 973 0.5 43
2017-11-15 19:00:00 10.5 8 Sudoeste 10 Sudoeste 0 972.7 0 43
2017-11-15 18:00:00 12.7 6 Sudoeste 9 Sudoeste 0 972.4 -0.7 40
2017-11-15 17:00:00 17.7 5 Noroeste 12 Norte 0 972.5 -1 26
2017-11-15 16:00:00 18.2 5 Norte 13 Norte 0 972.7 -1.5 26
2017-11-15 15:00:00 18 4 Este 9 Norte 0 973.1 -1.9 26
2017-11-15 14:00:00 16.6 5 Norte 13 Noroeste 0 973.5 -1.7 30
2017-11-15 13:00:00 15.3 4 Norte 10 Norte 0 974.2 -0.7 37
2017-11-15 12:00:00 12.9 3 Norte 8 Norte 0 975 0.2 49
2017-11-15 11:00:00 10 3 Norte 5 Noroeste 0 975.2 0.7 60
2017-11-15 10:00:00 7.6 2 Norte 4 Sur 0 974.9 1 68
2017-11-15 09:00:00 3.8 0 Calma 4 Sudeste 0 974.8 1.2 79
2017-11-15 08:00:00 3.1 4 Noroeste 6 Noroeste 0 974.5 1.2 84
2017-11-15 07:00:00 3.5 0 Calma 4 Oeste 0 973.9 0.4 79
2017-11-15 06:00:00 4.1 4 Sudeste 4 Sudeste 0 973.6 0 74
2017-11-15 05:00:00 4 0 Calma 5 Sudeste 0 973.3 -0.1 76
2017-11-15 04:00:00 4.3 2 Sudoeste 11 Sudeste 0 973.5 0.3 74
2017-11-15 03:00:00 4.6 3 Sudeste 8 Oeste 0 973.6 0.8 72
2017-11-15 02:00:00 4.6 5 Oeste 9 Sudoeste 0 973.4 0.4 71
2017-11-15 01:00:00 6.2 4 Sudoeste 7 Sur 0 973.2 0.3 65
2017-11-15 00:00:00 7 2 Sur 8 Sudoeste 0 972.8 0.2 60
2017-11-14 23:00:00 7.4 5 Sudoeste 8 Sudoeste 0 973 0.4 58
2017-11-14 22:00:00 7.8 5 Sudoeste 8 Sudoeste 0 972.9 0.6 57
2017-11-14 21:00:00 8 5 Sudoeste 9 Sudoeste 0 972.6 0.7 56
2017-11-14 20:00:00 8.3 6 Sudoeste 8 Sudoeste 0 972.6 0.7 55
2017-11-14 19:00:00 9.2 7 Sudoeste 9 Sudoeste 0 972.3 0.1 51
2017-11-14 18:00:00 11.2 7 Sudoeste 8 Sudoeste 0 971.9 -0.7 46
2017-11-14 17:00:00 15.4 5 Noroeste 11 Noroeste 0 971.9 -1.4 33
2017-11-14 16:00:00 15.2 6 Noroeste 12 Noroeste 0 972.2 -1.9 33
2017-11-14 15:00:00 14.8 5 Noroeste 10 Nordeste 0 972.6 -2.4 33
2017-11-14 14:00:00 13.8 5 Norte 11 Nordeste 0 973.3 -1.9 33
2017-11-14 13:00:00 12.5 7 Norte 12 Noroeste 0 974.1 -1.1 39
2017-11-14 12:00:00 11 7 Noroeste 13 Noroeste 0 975 0.3 46
2017-11-14 11:00:00 9.3 5 Norte 8 Nordeste 0 975.2 1.2 52
2017-11-14 10:00:00 8.1 3 Nordeste 8 Este 0 975.2 1.2 53
2017-11-14 09:00:00 4.5 4 Sudoeste 7 Sudoeste 0 974.7 0.5 73
2017-11-14 08:00:00 3.3 4 Sudoeste 9 Sudoeste 0 974 0 74
2017-11-14 07:00:00 3.3 3 Sudoeste 9 Sudoeste 0 974 -0.4 76
2017-11-14 06:00:00 3.8 4 Sudoeste 8 Sudoeste 0 974.2 -0.3 72
2017-11-14 05:00:00 4.1 6 Sur 10 Sudoeste 0 974 -0.5 72
2017-11-14 04:00:00 4.4 4 Sudoeste 9 Sudoeste 0 974.4 -0.1 70
2017-11-14 03:00:00 4.8 5 Sur 8 Sudoeste 0 974.5 -0.1 69
2017-11-14 02:00:00 5.2 5 Sudoeste 10 Sudoeste 0 974.5 0.2 67
2017-11-14 01:00:00 6.1 2 Este 7 Sudeste 0 974.5 0.7 66
2017-11-14 00:00:00 7.1 4 Sur 9 Nordeste 0 974.6 1.3 62
2017-11-13 23:00:00 7.4 3 Oeste 6 Sudoeste 0 974.3 1.1 67
2017-11-13 22:00:00 8.2 4 Sudoeste 11 Sudoeste 0 973.8 0.8 65
2017-11-13 21:00:00 9.1 3 Sudoeste 8 Sudoeste 0 973.3 0.6 62
2017-11-13 20:00:00 10.7 3 Oeste 14 Norte 0 973.2 0.7 56
2017-11-13 19:00:00 13.2 8 Norte 19 Norte 0 973 0.8 45
2017-11-13 18:00:00 15.6 13 Norte 24 Norte 0 972.7 0.3 39
2017-11-13 17:00:00 17.7 15 Norte 32 Norte 0 972.5 -0.4 35
2017-11-13 16:00:00 18.6 17 Norte 33 Nordeste 0 972.2 -1.5 37
2017-11-13 15:00:00 18.1 17 Nordeste 36 Norte 0 972.4 -2.1 41
2017-11-13 14:00:00 18.7 12 Norte 30 Norte 0 972.9 -1.6 40
2017-11-13 13:00:00 17.9 14 Norte 32 Norte 0 973.7 -0.9 40
2017-11-13 12:00:00 16.3 9 Norte 18 Norte 0 974.5 0.3 49
2017-11-13 11:00:00 14.1 6 Norte 15 Noroeste 0 974.5 0.6 59
2017-11-13 10:00:00 11.9 4 Noroeste 10 Noroeste 0 974.6 1 70
2017-11-13 09:00:00 9.7 5 Oeste 11 Sudoeste 0 974.2 0.8 79
2017-11-13 08:00:00 8.7 5 Oeste 9 Oeste 0 973.9 0.2 82
2017-11-13 07:00:00 8.7 4 Oeste 9 Oeste 0 973.6 -0.1 85
2017-11-13 06:00:00 9.5 4 Oeste 18 Norte 0 973.4 -1 80
2017-11-13 05:00:00 10.2 8 Noroeste 17 Noroeste 0 973.7 -0.7 79
2017-11-13 04:00:00 10.5 9 Noroeste 16 Noroeste 0 973.7 -1.1 80
2017-11-13 03:00:00 10.7 9 Noroeste 22 Noroeste 0 974.4 -0.5 78
2017-11-13 02:00:00 11.4 11 Noroeste 21 Noroeste 0 974.4 -0.8 74
2017-11-13 01:00:00 12.2 11 Noroeste 21 Oeste 0 974.8 -0.5 69
2017-11-13 00:00:00 12.3 10 Noroeste 21 Noroeste 0 974.9 -0.2 68
2017-11-12 23:00:00 13.1 10 Noroeste 17 Noroeste 0 975.2 0.2 61
2017-11-12 22:00:00 13.9 7 Noroeste 20 Noroeste 0 975.3 0.5 52
2017-11-12 21:00:00 14.4 8 Noroeste 15 Noroeste 0 975.1 0.6 46
2017-11-12 20:00:00 15.7 7 Oeste 16 Noroeste 0 975 0.6 43
2017-11-12 19:00:00 16.9 8 Noroeste 17 Noroeste 0 974.8 0.2 37
2017-11-12 18:00:00 18.8 8 Noroeste 22 Noroeste 0 974.5 -0.4 34
2017-11-12 17:00:00 21.2 13 Noroeste 28 Noroeste 0 974.4 -1.1 30
2017-11-12 16:00:00 21.1 15 Noroeste 27 Norte 0 974.6 -1.8 31
2017-11-12 15:00:00 20.5 11 Noroeste 22 Norte 0 974.9 -2.4 34
2017-11-12 14:00:00 19.4 13 Noroeste 22 Noroeste 0 975.5 -1.9 33
2017-11-12 13:00:00 17.9 13 Noroeste 19 Noroeste 0 976.4 -1.3 40
2017-11-12 12:00:00 15.4 5 Norte 13 Norte 0 977.3 -0.2 55
2017-11-12 11:00:00 14.1 5 Norte 9 Noroeste 0 977.4 0.4 50
2017-11-12 10:00:00 11 4 Oeste 6 Oeste 0 977.7 0.7 67
2017-11-12 09:00:00 7.1 0 Calma 11 Oeste 0 977.5 0.5 78
2017-11-12 08:00:00 7 7 Sudoeste 10 Oeste 0 977 -0.2 76
2017-11-12 07:00:00 6.8 4 Oeste 8 Oeste 0 977 -0.6 75
2017-11-12 06:00:00 8.6 4 Sudoeste 10 Oeste 0 977 -1 71
2017-11-12 05:00:00 8.6 6 Oeste 12 Oeste 0 977.2 -1.1 74
2017-11-12 04:00:00 9 6 Sudoeste 8 Sudoeste 0 977.6 -1.1 70
2017-11-12 03:00:00 10 6 Sudoeste 9 Oeste 0 978 -0.9 68
2017-11-12 02:00:00 9.7 4 Sudoeste 11 Sudoeste 0 978.3 -0.8 70
2017-11-12 01:00:00 11.4 3 Sudoeste 8 Norte 0 978.7 -0.6 61
2017-11-12 00:00:00 13.9 6 Noroeste 19 Oeste 0 978.9 -0.3 54
2017-11-11 23:00:00 14.7 13 Sudoeste 22 Oeste 0 979.1 -0.2 52
2017-11-11 22:00:00 14.3 12 Sudoeste 18 Sudoeste 0 979.3 0.1 55
2017-11-11 21:00:00 13 9 Sudoeste 13 Sudoeste 0 979.2 -0.1 61
2017-11-11 20:00:00 12.9 7 Sudoeste 12 Sudoeste 0 979.3 -0.1 60
2017-11-11 19:00:00 13.1 8 Sudoeste 11 Sudoeste 0 979.2 -0.5 59
2017-11-11 18:00:00 15.4 5 Sur 9 Norte 0 979.3 -0.9 51
2017-11-11 17:00:00 19.7 7 Nordeste 13 Norte 0 979.4 -1.5 38
2017-11-11 16:00:00 19.8 9 Nordeste 16 Nordeste 0 979.7 -1.8 37
2017-11-11 15:00:00 18.8 6 Norte 22 Nordeste 0 980.2 -1.9 43
2017-11-11 14:00:00 17.5 10 Nordeste 19 Norte 0 980.9 -1.5 48
2017-11-11 13:00:00 16.2 8 Noroeste 14 Noroeste 0 981.5 -0.6 53
2017-11-11 12:00:00 14.5 7 Noroeste 11 Noroeste 0 982.1 0.2 59
2017-11-11 11:00:00 12.8 6 Norte 10 Norte 0 982.4 0.8 67
2017-11-11 10:00:00 11.9 5 Noroeste 7 Norte 0 982.1 0.6 69
2017-11-11 09:00:00 9.9 0 Calma 10 Oeste 0 981.9 0.2 76
2017-11-11 08:00:00 9.1 6 Oeste 13 Oeste 0 981.6 -0.6 78
2017-11-11 07:00:00 8.8 5 Sudoeste 9 Oeste 0 981.5 -1 81
2017-11-11 06:00:00 9.9 6 Sudoeste 9 Sudoeste 0 981.7 -1.1 75
2017-11-11 05:00:00 9.1 6 Sudoeste 8 Sudoeste 0 982.2 -0.7 77
2017-11-11 04:00:00 9.5 7 Sudoeste 10 Sudoeste 0 982.5 -0.8 76
2017-11-11 03:00:00 9.8 6 Sudoeste 9 Sudoeste 0 982.8 -0.3 75
2017-11-11 02:00:00 9.5 6 Sudoeste 9 Sudoeste 0 982.9 -0.1 76
2017-11-11 01:00:00 10 7 Oeste 10 Oeste 0 983.3 0.4 74
2017-11-11 00:00:00 10.3 5 Sudoeste 10 Oeste 0 983.1 0.4 72
2017-11-10 23:00:00 10.4 5 Sudoeste 10 Sudoeste 0 983 0.3 72
2017-11-10 22:00:00 11.2 5 Sudoeste 9 Oeste 0 982.9 0.7 68
2017-11-10 21:00:00 12.1 6 Sudoeste 11 Oeste 0 982.7 0.8 65
2017-11-10 20:00:00 13.8 6 Oeste 11 Oeste 0 982.7 0.8 57
2017-11-10 19:00:00 14.8 3 Noroeste 10 Noroeste 0 982.2 0 54
2017-11-10 18:00:00 16.9 2 Oeste 18 Norte 0 981.9 -0.3 46
2017-11-10 17:00:00 19.2 11 Norte 22 Norte 0 981.9 -0.9 39
2017-11-10 16:00:00 19.1 6 Este 14 Norte 0 982.2 -1.5 37
2017-11-10 15:00:00 18.3 3 Nordeste 13 Noroeste 0 982.2 -1.9 38
2017-11-10 14:00:00 17.2 4 Noroeste 12 Noroeste 0 982.8 -0.8 40
2017-11-10 13:00:00 15.7 4 Norte 14 Noroeste 0 983.7 0.6 44
2017-11-10 12:00:00 13.8 6 Norte 13 Norte 0 984.1 1.1 48
2017-11-10 11:00:00 12 7 Noroeste 14 Noroeste 0 983.6 1.2 51
2017-11-10 10:00:00 10.1 5 Noroeste 10 Oeste 0 983.1 0.8 53
2017-11-10 09:00:00 6.5 3 Oeste 10 Oeste 0 983 0.7 67
2017-11-10 08:00:00 5.9 6 Sudoeste 9 Oeste 0 982.4 0.5 67
2017-11-10 07:00:00 5 8 Sudoeste 10 Sudoeste 0 982.3 0.2 68
2017-11-10 06:00:00 4.8 6 Oeste 9 Oeste 0 982.3 0 68
2017-11-10 05:00:00 4.7 6 Oeste 10 Oeste 0 981.9 -0.6 68
2017-11-10 04:00:00 5 6 Sudoeste 9 Sudoeste 0 982.1 -0.3 67
2017-11-10 03:00:00 5.3 6 Sudoeste 10 Sudoeste 0 982.3 0 66
2017-11-10 02:00:00 5.2 7 Oeste 9 Sudoeste 0 982.5 0.4 66
2017-11-10 01:00:00 5.2 5 Sudoeste 8 Sudoeste 0 982.4 0.6 67
2017-11-10 00:00:00 5.7 5 Sudoeste 6 Sudoeste 0 982.3 0.9 67
2017-11-09 23:00:00 6.3 5 Sudoeste 8 Sur 0 982.1 1.2 63
2017-11-09 22:00:00 7.3 5 Sudoeste 9 Sudoeste 0 981.8 1.4 58
2017-11-09 21:00:00 8 6 Sudoeste 9 Sudoeste 0 981.4 1.7 55
2017-11-09 20:00:00 9.1 4 Sudoeste 14 Norte 0 980.9 1.2 50
2017-11-09 19:00:00 11.2 7 Norte 17 Norte 0 980.4 0.7 43
2017-11-09 18:00:00 13 8 Norte 22 Nordeste 0 979.7 -0.2 40
2017-11-09 17:00:00 14.3 13 Nordeste 26 Nordeste 0 979.7 -0.6 29
2017-11-09 16:00:00 14.5 12 Norte 21 Norte 0 979.7 -1.1 30
2017-11-09 15:00:00 14.1 12 Norte 21 Norte 0 979.9 -1.8 33
2017-11-09 14:00:00 13.6 10 Norte 21 Norte 0 980.3 -1.3 37
2017-11-09 13:00:00 13.2 13 Norte 19 Norte 0 980.8 -0.8 38
2017-11-09 12:00:00 12.3 9 Nordeste 18 Nordeste 0 981.7 0.7 41
2017-11-09 11:00:00 10.1 4 Norte 9 Norte 0 981.6 1.3 53
2017-11-09 10:00:00 7.7 5 Noroeste 9 Noroeste 0 981.6 2 63
2017-11-09 09:00:00 5.2 5 Noroeste 9 Noroeste 0 981 1.5 75
2017-11-09 08:00:00 4.2 4 Sudoeste 6 Sudoeste 0 980.3 1.1 81
2017-11-09 07:00:00 4.9 2 Este 10 Sudeste 0 979.6 0.6 76
2017-11-09 06:00:00 4.7 3 Sudoeste 6 Noroeste 0 979.5 0.7 81
2017-11-09 05:00:00 5.2 3 Sudoeste 8 Noroeste 0 979.2 0.4 79
2017-11-09 04:00:00 5.9 4 Sudoeste 9 Oeste 0 979 0.6 74
2017-11-09 03:00:00 6.2 4 Oeste 8 Sudoeste 0 978.8 0.4 72
2017-11-09 02:00:00 7.2 4 Sudoeste 12 Norte 0 978.8 0.4 68
2017-11-09 01:00:00 9.4 8 Norte 16 Norte 0 978.4 0.3 56
2017-11-09 00:00:00 10 4 Oeste 13 Norte 0 978.4 0.9 57
2017-11-08 23:00:00 11.3 6 Nordeste 21 Norte 0 978.4 1.1 50
2017-11-08 22:00:00 11.7 7 Norte 25 Norte 0 978.1 1.2 46
2017-11-08 21:00:00 12.5 11 Norte 32 Norte 0 977.5 1.2 42
2017-11-08 20:00:00 12.1 11 Norte 23 Norte 0 977.3 1 43
2017-11-08 19:00:00 12.9 11 Norte 32 Norte 0 976.9 0.9 37
2017-11-08 18:00:00 14.6 19 Norte 33 Norte 0 976.3 0.2 30
2017-11-08 17:00:00 15.9 18 Norte 35 Norte 0 976.3 -0.2 31
2017-11-08 16:00:00 17.1 17 Norte 31 Norte 0 976 -1.1 40
2017-11-08 15:00:00 17.5 9 Norte 23 Norte 0 976.1 -1.5 44
2017-11-08 14:00:00 17 13 Norte 23 Norte 0 976.5 -1.2 43
2017-11-08 13:00:00 16 7 Norte 15 Norte 0 977.1 -0.3 52
2017-11-08 12:00:00 14.1 5 Nordeste 10 Nordeste 0 977.6 0.8 58
2017-11-08 11:00:00 12.3 7 Nordeste 15 Nordeste 0 977.7 1.7 67
2017-11-08 10:00:00 10.8 3 Nordeste 8 Nordeste 0 977.4 1.8 73
2017-11-08 09:00:00 8.3 3 Sudoeste 6 Oeste 0 976.8 1.5 84
2017-11-08 08:00:00 7.7 4 Oeste 8 Oeste 0 976 0.9 85
2017-11-08 07:00:00 8 5 Oeste 9 Noroeste 0 975.6 0.4 84
2017-11-08 06:00:00 8.5 5 Oeste 13 Noroeste 0 975.3 0.1 82
2017-11-08 05:00:00 9.7 7 Oeste 17 Noroeste 0 975.1 -0.2 78
2017-11-08 04:00:00 9.7 5 Oeste 14 Oeste 0 975.2 -0.1 80
2017-11-08 03:00:00 10.8 8 Noroeste 17 Noroeste 0 975.2 0.2 76
2017-11-08 02:00:00 11.1 7 Oeste 16 Noroeste 0 975.3 0.2 74
2017-11-08 01:00:00 11.3 6 Noroeste 15 Noroeste 0 975.3 0.3 73
2017-11-08 00:00:00 12.1 8 Oeste 16 Noroeste 0 975 0.2 70
2017-11-07 23:00:00 12.9 10 Noroeste 17 Noroeste 0 975.1 0.7 65
2017-11-07 22:00:00 13.1 7 Noroeste 17 Noroeste 0 975 1 57
2017-11-07 21:00:00 12.9 7 Noroeste 12 Noroeste 0 974.8 1.2 50
2017-11-07 20:00:00 13.7 5 Oeste 12 Oeste 0 974.4 0.8 49
2017-11-07 19:00:00 14.7 7 Oeste 11 Sudoeste 0 974 0.3 48
2017-11-07 18:00:00 17 7 Oeste 22 Noroeste 0 973.6 -0.4 40
2017-11-07 17:00:00 19.6 11 Noroeste 19 Noroeste 0 973.6 -0.7 33
2017-11-07 16:00:00 19.7 10 Noroeste 21 Noroeste 0 973.7 -1.4 34
2017-11-07 15:00:00 18.7 14 Noroeste 24 Noroeste 0 974 -1.6 38
2017-11-07 14:00:00 17.7 13 Noroeste 26 Noroeste 0 974.3 -1.3 40
2017-11-07 13:00:00 16 13 Noroeste 25 Noroeste 0 975.1 -0.6 46
2017-11-07 12:00:00 13.9 8 Noroeste 18 Noroeste 0 975.6 0.2 54
2017-11-07 11:00:00 12.3 5 Norte 8 Norte 0 975.6 1 66
2017-11-07 10:00:00 9.9 4 Norte 12 Norte 0 975.7 1.4 74
2017-11-07 09:00:00 6.5 3 Sudeste 8 Sudoeste 0 975.4 0.9 87
2017-11-07 08:00:00 5.1 4 Sudoeste 8 Oeste 0 974.6 0 86
2017-11-07 07:00:00 6.6 6 Sudoeste 8 Sudoeste 0 974.3 -0.3 80
2017-11-07 06:00:00 6.5 3 Sur 9 Sudoeste 0 974.5 -0.6 82
2017-11-07 05:00:00 6.3 6 Sudoeste 8 Sudoeste 0 974.6 -0.5 83
2017-11-07 04:00:00 6.4 6 Sudoeste 10 Sudoeste 0 974.6 -0.5 82
2017-11-07 03:00:00 6.9 6 Sudoeste 8 Oeste 0 975.1 -0.1 82
2017-11-07 02:00:00 6.3 3 Sudoeste 7 Sudoeste 0 975.1 -0.1 82
2017-11-07 01:00:00 7.2 5 Sudoeste 10 Sudoeste 0 975.1 0 81
2017-11-07 00:00:00 8.4 5 Sudoeste 8 Sudoeste 0 975.2 0.2 74
2017-11-06 23:00:00 9.6 3 Norte 10 Norte 0 975.2 0.1 68
2017-11-06 22:00:00 10.3 5 Oeste 14 Noroeste 0 975.1 0.1 65
2017-11-06 21:00:00 10.5 5 Oeste 8 Oeste 0 975 0.1 65
2017-11-06 20:00:00 10.9 7 Oeste 9 Oeste 0 975.1 0 64
2017-11-06 19:00:00 11.3 5 Sudoeste 8 Norte 0 975 -0.4 63
2017-11-06 18:00:00 15.4 6 Norte 15 Norte 0 974.9 -1.2 44
2017-11-06 17:00:00 17 8 Norte 15 Noroeste 0 975.1 -1.8 40
2017-11-06 16:00:00 17.2 5 Noroeste 14 Noroeste 0 975.4 -2.6 38
2017-11-06 15:00:00 17 5 Nordeste 12 Noroeste 0 976.1 -2.9 42
2017-11-06 14:00:00 16.1 5 Noroeste 10 Este 0 976.9 -2 48
2017-11-06 13:00:00 14.9 5 Este 13 Este 0 978 -1 52
2017-11-06 12:00:00 13.2 5 Este 13 Este 0 979 0.2 59
2017-11-06 11:00:00 11.6 8 Nordeste 14 Este 0 978.9 0.5 66
2017-11-06 10:00:00 10.4 7 Este 10 Este 0 979 1 67
2017-11-06 09:00:00 7.7 0 Calma 4 Sudoeste 0 978.8 0.6 84
2017-11-06 08:00:00 5.6 0 Calma 5 Sudoeste 0 978.4 0.2 86
2017-11-06 07:00:00 6.3 4 Sudoeste 7 Sudoeste 0 978 -0.3 84
2017-11-06 06:00:00 7 5 Sudoeste 8 Sudoeste 0 978.2 -0.3 81
2017-11-06 05:00:00 7.8 6 Oeste 9 Sudoeste 0 978.2 -0.4 77
2017-11-06 04:00:00 7.9 6 Oeste 8 Sudoeste 0 978.3 -0.3 76
2017-11-06 03:00:00 8 5 Sudoeste 8 Oeste 0 978.5 0.1 77
2017-11-06 02:00:00 9.1 6 Sudoeste 11 Sudoeste 0 978.6 0.4 72
2017-11-06 01:00:00 9.4 6 Oeste 9 Sudoeste 0 978.6 0.7 69
2017-11-06 00:00:00 9.9 4 Oeste 10 Sudoeste 0 978.4 0.6 66
2017-11-05 23:00:00 10.9 4 Noroeste 16 Norte 0 978.2 0.5 63
2017-11-05 22:00:00 11.7 9 Noroeste 15 Norte 0 977.9 0.6 57
2017-11-05 21:00:00 12.2 8 Noroeste 14 Noroeste 0 977.8 1 56
2017-11-05 20:00:00 13.2 6 Noroeste 21 Noroeste 0 977.7 1.3 53
2017-11-05 19:00:00 14.4 13 Norte 31 Noroeste 0 977.3 1 47
2017-11-05 18:00:00 15.6 18 Norte 37 Norte 0 976.8 0.4 45
2017-11-05 17:00:00 17.3 19 Norte 32 Noroeste 0 976.4 -0.3 43
2017-11-05 16:00:00 17.9 17 Norte 38 Norte 0 976.3 -0.5 43
2017-11-05 15:00:00 17.6 19 Norte 37 Noroeste 0 976.4 -0.7 48
2017-11-05 14:00:00 17.6 18 Noroeste 31 Norte 0 976.7 -0.3 49
2017-11-05 13:00:00 17.1 12 Norte 24 Noroeste 0 976.8 0.1 53
2017-11-05 12:00:00 15.8 15 Norte 28 Norte 0 977.1 1.1 59
2017-11-05 11:00:00 14.6 14 Noroeste 30 Noroeste 0 977 1.8 63
2017-11-05 10:00:00 12.8 11 Noroeste 22 Noroeste 0 976.7 1.9 76
2017-11-05 09:00:00 11.4 11 Noroeste 18 Noroeste 0 976 1.6 79
2017-11-05 08:00:00 10.6 7 Oeste 19 Noroeste 0 975.2 1.4 84
2017-11-05 07:00:00 10.9 9 Oeste 19 Noroeste 0 974.8 1.3 83
2017-11-05 06:00:00 11.3 13 Noroeste 21 Noroeste 0 974.4 0.8 83
2017-11-05 05:00:00 11.7 12 Noroeste 28 Noroeste 0 973.8 0.5 82
2017-11-05 04:00:00 12.5 10 Oeste 27 Noroeste 0 973.5 0.4 78
2017-11-05 03:00:00 12.8 10 Oeste 27 Noroeste 0 973.6 1.2 78
2017-11-05 02:00:00 13.1 12 Oeste 23 Noroeste 0 973.3 1.3 79
2017-11-05 01:00:00 13.5 12 Oeste 23 Noroeste 0 973.1 1.7 81
2017-11-05 00:00:00 14.1 12 Noroeste 22 Noroeste 0 972.4 1.7 79
2017-11-04 23:00:00 14.1 6 Oeste 21 Noroeste 0 972 2 79
2017-11-04 22:00:00 14.6 10 Noroeste 26 Noroeste 0 971.4 2.3 79
2017-11-04 21:00:00 15.3 11 Noroeste 28 Oeste 0 970.7 2.6 79
2017-11-04 20:00:00 15.1 8 Oeste 26 Noroeste 0 970 2.6 82
2017-11-04 19:00:00 15.4 8 Oeste 18 Oeste 0 969.1 2.4 83
2017-11-04 18:00:00 16.1 7 Noroeste 22 Noroeste 0 968.1 2.1 78
2017-11-04 17:00:00 16.7 12 Noroeste 30 Noroeste 0 967.4 1.3 74
2017-11-04 16:00:00 16.2 15 Noroeste 32 Noroeste 0 966.7 0.6 77
2017-11-04 15:00:00 16.7 15 Noroeste 27 Noroeste 0 966 -0.4 78
2017-11-04 14:00:00 15.1 13 Oeste 26 Oeste 0 966.1 0 81
2017-11-04 13:00:00 14.9 16 Sudoeste 29 Sudoeste 0 966.1 0.2 87
2017-11-04 12:00:00 14.8 10 Sudoeste 26 Sudoeste 0 966.4 1.1 88
2017-11-04 11:00:00 14 5 Sur 23 Sudoeste 0.2 966.1 1.7 91
2017-11-04 10:00:00 13.6 9 Sudoeste 22 Sur 0.4 965.9 2 91
2017-11-04 09:00:00 13.4 12 Sur 30 Sur 0.6 965.3 1.5 92
2017-11-04 08:00:00 13.5 8 Sur 23 Sudeste 0 964.4 0.6 92
2017-11-04 07:00:00 13.6 5 Este 30 Sur 1 963.9 -0.1 92
2017-11-04 06:00:00 13.4 19 Sur 32 Sur 4.8 963.8 -0.7 93
2017-11-04 05:00:00 13.6 14 Sur 32 Sur 0.2 963.8 -1 91
2017-11-04 04:00:00 13.6 19 Sur 37 Sur 0 964 -1.3 91
2017-11-04 03:00:00 13.6 20 Sur 38 Sur 0 964.5 -1 91
2017-11-04 02:00:00 13.5 18 Sur 37 Sur 1.2 964.8 -0.9 92
2017-11-04 01:00:00 13.3 16 Sur 31 Sur 1 965.3 -0.4 89
2017-11-04 00:00:00 13.7 17 Sur 30 Sur 0.2 965.5 -0.2 91
2017-11-03 23:00:00 14.1 14 Sur 23 Sur 0 965.7 -0.5 88
2017-11-03 22:00:00 13.8 13 Sur 20 Sudeste 0.2 965.7 0.1 92
2017-11-03 21:00:00 14.2 12 Sur 26 Sudoeste 0.4 965.7 0 91
2017-11-03 20:00:00 15 15 Sudoeste 21 Sudoeste 0.4 966.2 0.6 83
2017-11-03 19:00:00 14.8 4 Nordeste 23 Sudoeste 0.4 965.6 -0.1 86
2017-11-03 18:00:00 17 13 Oeste 28 Oeste 0 965.7 -0.8 70
2017-11-03 17:00:00 18.9 10 Sur 21 Sur 0 965.6 -1.4 53
2017-11-03 16:00:00 19.1 12 Sur 22 Sur 0 965.7 -2.4 53
2017-11-03 15:00:00 19 9 Sur 20 Sudoeste 0 966.5 -2.4 55
2017-11-03 14:00:00 19.4 10 Sur 21 Sur 0 967 -1.9 59
2017-11-03 13:00:00 17.6 12 Sur 21 Sur 0 968.1 -0.5 66
2017-11-03 12:00:00 17.8 15 Sur 28 Sur 0 968.9 0.5 69
2017-11-03 11:00:00 15.8 15 Sur 23 Sudoeste 0 968.9 0.7 80
2017-11-03 10:00:00 15.3 18 Sur 26 Sur 0 968.6 0.7 84
2017-11-03 09:00:00 14.4 14 Sur 20 Sur 0 968.4 0.5 89
2017-11-03 08:00:00 14.1 8 Sur 15 Sur 0 968.2 0.2 92
2017-11-03 07:00:00 14.2 5 Sur 18 Sudeste 0 967.9 -0.5 90
2017-11-03 06:00:00 14.1 8 Sur 15 Sur 0 967.9 -0.2 91
2017-11-03 05:00:00 13.8 3 Sur 18 Sur 0 968 -0.5 92
2017-11-03 04:00:00 13.8 5 Sur 18 Sur 0 968.4 -0.6 90
2017-11-03 03:00:00 13.6 11 Sur 18 Sur 0 968.1 -0.9 92
2017-11-03 02:00:00 13.9 10 Sur 32 Sur 3.4 968.5 -0.8 87
2017-11-03 01:00:00 14.7 9 Sudoeste 28 Oeste 5 969 -0.5 91
2017-11-03 00:00:00 15.1 9 Sur 19 Sur 1.4 969 -0.4 91
2017-11-02 23:00:00 15.4 5 Oeste 19 Sudoeste 0.4 969.3 0.3 89
2017-11-02 22:00:00 15.9 9 Sudoeste 22 Sudoeste 0.2 969.5 0.6 86
2017-11-02 21:00:00 17.2 17 Sudoeste 28 Sur 0 969.4 0.4 72
2017-11-02 20:00:00 17.7 13 Sur 22 Sur 0 969 -0.5 68
2017-11-02 19:00:00 17.2 11 Sudeste 16 Sudeste 0 968.9 -0.8 74
2017-11-02 18:00:00 16.9 9 Sudeste 17 Sudeste 0.2 969 -0.8 81
2017-11-02 17:00:00 17.4 13 Sur 21 Sur 0.2 969.5 -1.1 77
2017-11-02 16:00:00 16.9 10 Sudoeste 29 Sur 0.2 969.7 -1.6 79
2017-11-02 15:00:00 19.2 11 Sur 22 Sudeste 0 969.8 -2.1 59
2017-11-02 14:00:00 18.9 12 Sur 26 Sur 0 970.6 -1.5 61
2017-11-02 13:00:00 19.2 16 Sur 34 Sur 0 971.3 -0.8 60
2017-11-02 12:00:00 17.9 21 Sur 33 Sur 0 971.9 0.1 66
2017-11-02 11:00:00 17.1 16 Sur 33 Sur 0 972.1 0.8 69
2017-11-02 10:00:00 16.4 16 Sur 32 Sudeste 0 972.1 0.9 72
2017-11-02 09:00:00 16 19 Sudeste 30 Sudeste 0 971.8 0.6 74
2017-11-02 08:00:00 16 18 Sudeste 27 Sur 0 971.3 0 72
2017-11-02 07:00:00 15.7 13 Sudeste 23 Sudeste 0 971.2 -0.2 74
2017-11-02 06:00:00 16 14 Sudeste 23 Sudeste 0 971.2 -0.4 71
2017-11-02 05:00:00 16.1 10 Sudeste 16 Sudeste 0 971.3 -0.4 72
2017-11-02 04:00:00 16.6 8 Sudeste 21 Sudoeste 0 971.4 -0.7 69
2017-11-02 03:00:00 17.2 12 Sur 19 Sur 0 971.6 -0.7 71
2017-11-02 02:00:00 17.1 13 Sur 22 Sur 0 971.7 -0.4 70
2017-11-02 01:00:00 17.6 7 Sur 22 Sur 0 972.1 0.3 67
2017-11-02 00:00:00 17.8 7 Sudoeste 17 Sur 0 972.3 0.7 66
2017-11-01 23:00:00 18.3 10 Sudoeste 20 Sudoeste 0 972.1 0.4 59
2017-11-01 22:00:00 17.2 9 Sudoeste 13 Sudoeste 0 971.8 0.2 57
2017-11-01 21:00:00 17.5 8 Sur 12 Sudoeste 0 971.6 0.4 55
2017-11-01 20:00:00 19.2 5 Sudoeste 19 Oeste 0 971.7 0.4 49
2017-11-01 19:00:00 20.5 9 Sudoeste 22 Sur 0 971.6 0 44
2017-11-01 18:00:00 21.3 8 Sur 26 Sur 0 971.2 -0.8 40
2017-11-01 17:00:00 22.4 12 Sudeste 27 Sudeste 0 971.3 -1.3 39
2017-11-01 16:00:00 23.2 14 Sudeste 28 Sudeste 0 971.6 -1.9 40
2017-11-01 15:00:00 22.1 10 Sur 25 Sudoeste 0 972 -2.2 43
2017-11-01 14:00:00 21.8 11 Sur 31 Sudeste 0 972.6 -1.8 45
2017-11-01 13:00:00 21.6 17 Sur 28 Sur 0 973.5 -1 45
2017-11-01 12:00:00 20.7 15 Sudeste 32 Sudeste 0 974.2 -0.3 53
2017-11-01 11:00:00 18.9 17 Sudeste 30 Sudeste 0 974.4 0.5 59
2017-11-01 10:00:00 17.8 18 Sudeste 27 Sudeste 0 974.5 1.2 62
2017-11-01 09:00:00 15.6 16 Sur 26 Sur 0 974.5 1.4 68
2017-11-01 08:00:00 13.8 0 Calma 18 Sur 0 973.9 0.8 74
2017-11-01 07:00:00 15 16 Sur 25 Sur 0 973.3 0.4 70
2017-11-01 06:00:00 14.9 18 Sur 26 Sur 0 973.1 0 68
2017-11-01 05:00:00 15.5 19 Sur 32 Sur 0 973.1 0 64
2017-11-01 04:00:00 15.7 23 Sur 31 Sur 0 972.9 -0.6 63
2017-11-01 03:00:00 11.8 3 Norte 7 Noroeste 0 973.1 -0.3 62
2017-11-01 02:00:00 11.8 0 Calma 5 Noroeste 0 973.1 -0.5 59
2017-11-01 01:00:00 11.6 4 Noroeste 8 Noroeste 0 973.5 0.2 62
2017-11-01 00:00:00 14.3 3 Sudoeste 4 Sur 0 973.4 0.2 50
2017-10-31 23:00:00 14.7 2 Noroeste 13 Sudeste 0 973.6 0.6 52
2017-10-31 22:00:00 16.4 10 Sudeste 14 Sudeste 0 973.3 0.6 51
2017-10-31 21:00:00 17.2 9 Sudeste 14 Sudeste 0 973.2 0.9 49
2017-10-31 20:00:00 18 8 Sudeste 14 Sudeste 0 973 0.9 44
2017-10-31 19:00:00 17.8 3 Sur 12 Sudeste 0 972.7 0.7 41
2017-10-31 18:00:00 21.6 7 Sudeste 20 Este 0 972.3 0.2 32
2017-10-31 17:00:00 23.6 8 Nordeste 16 Este 0 972.1 -0.2 28
2017-10-31 16:00:00 24 9 Nordeste 23 Nordeste 0 972 -1.1 28
2017-10-31 15:00:00 24.1 8 Este 23 Este 0 972.1 -1.6 28
2017-10-31 14:00:00 23.1 15 Este 26 Sudeste 0 972.3 -1.5 30
2017-10-31 13:00:00 21.6 10 Este 20 Este 0 973.1 -0.8 35
2017-10-31 12:00:00 20.2 8 Este 18 Este 0 973.7 0.4 39
2017-10-31 11:00:00 17 6 Nordeste 12 Este 0 973.8 1.3 48
2017-10-31 10:00:00 14.7 5 Este 12 Este 0 973.9 1.9 54
2017-10-31 09:00:00 11.1 0 Calma 8 Sudeste 0 973.3 1.5 69
2017-10-31 08:00:00 9.6 7 Sudeste 8 Sudeste 0 972.5 1 70
2017-10-31 07:00:00 9.3 3 Sudeste 7 Sudeste 0 972 0.6 70
2017-10-31 06:00:00 9.9 4 Sur 6 Sur 0 971.8 0.4 66
2017-10-31 05:00:00 9.6 0 Calma 8 Sudoeste 0 971.5 0.2 65
2017-10-31 04:00:00 9.5 3 Sudoeste 5 Oeste 0 971.4 -0.1 64
2017-10-31 03:00:00 11.1 0 Calma 5 Sur 0 971.4 -0.1 57
2017-10-31 02:00:00 11.4 5 Sudoeste 8 Sudoeste 0 971.3 -0.2 58
2017-10-31 01:00:00 11.3 4 Sur 6 Sur 0 971.5 0.2 59
2017-10-31 00:00:00 12.1 4 Sur 6 Sudoeste 0 971.5 0.3 57
2017-10-30 23:00:00 12.5 5 Sur 7 Sudoeste 0 971.5 0.5 55
2017-10-30 22:00:00 13.2 6 Sudoeste 8 Sudoeste 0 971.3 0.7 52
2017-10-30 21:00:00 13.5 5 Sudoeste 7 Sudoeste 0 971.2 1.2 49
2017-10-30 20:00:00 15.3 4 Sudoeste 6 Sudoeste 0 971 1 44
2017-10-30 19:00:00 17.3 3 Oeste 12 Nordeste 0 970.6 0.5 37
2017-10-30 18:00:00 21.4 7 Nordeste 17 Norte 0 970 -0.4 28
2017-10-30 17:00:00 22.9 10 Nordeste 18 Nordeste 0 970 -0.9 26
2017-10-30 16:00:00 23.4 6 Norte 17 Norte 0 970.1 -1.6 27
2017-10-30 15:00:00 23 6 Norte 20 Nordeste 0 970.4 -2.1 28
2017-10-30 14:00:00 21.8 5 Norte 15 Norte 0 970.9 -1.8 29
2017-10-30 13:00:00 20.4 5 Noroeste 14 Norte 0 971.7 -1.3 33
2017-10-30 12:00:00 18.5 5 Norte 10 Nordeste 0 972.5 -0.1 38
2017-10-30 11:00:00 16.3 3 Nordeste 10 Este 0 972.7 0.6 43
2017-10-30 10:00:00 13.8 5 Este 9 Este 0 973 1.2 47
2017-10-30 09:00:00 10.5 0 Calma 6 Oeste 0 972.6 1.1 56
2017-10-30 08:00:00 9 3 Sudoeste 9 Sudeste 0 972.1 0.7 57
2017-10-30 07:00:00 10.7 7 Sudeste 10 Sudeste 0 971.8 0.3 50
2017-10-30 06:00:00 8.9 4 Sudoeste 9 Oeste 0 971.5 -0.2 58
2017-10-30 05:00:00 10.2 6 Sudeste 7 Sudeste 0 971.4 -0.4 53
2017-10-30 04:00:00 10.8 5 Sudoeste 7 Sudoeste 0 971.5 -0.7 52
2017-10-30 03:00:00 11.3 6 Sudoeste 8 Sur 0 971.7 -0.7 49
2017-10-30 02:00:00 11.3 2 Sudoeste 5 Sudoeste 0 971.8 -0.9 47
2017-10-30 01:00:00 11.6 4 Sudoeste 6 Sudoeste 0 972.2 -0.8 43
2017-10-30 00:00:00 12.2 5 Sudoeste 9 Sudoeste 0 972.4 -0.8 40
2017-10-29 23:00:00 13.7 5 Sudoeste 10 Sudoeste 0 972.7 -0.4 38
2017-10-29 22:00:00 14.8 7 Sudoeste 9 Sudoeste 0 973 0 39
2017-10-29 21:00:00 14.8 5 Oeste 11 Sudoeste 0 973.2 0.2 41
2017-10-29 20:00:00 16.6 5 Sudoeste 8 Oeste 0 973.1 0.1 37
2017-10-29 19:00:00 18.5 6 Sudoeste 7 Oeste 0 973 -0.6 33
2017-10-29 18:00:00 21.7 5 Sudoeste 12 Norte 0 973 -1.2 29
2017-10-29 17:00:00 25.4 4 Noroeste 11 Norte 0 973 -1.7 22
2017-10-29 16:00:00 25.4 4 Nordeste 13 Norte 0 973.6 -2.3 22
2017-10-29 15:00:00 24.8 7 Norte 14 Noroeste 0 974.2 -2.5 24
2017-10-29 14:00:00 24 5 Norte 12 Este 0 974.7 -2.6 26
2017-10-29 13:00:00 22.5 7 Este 13 Este 0 975.9 -1.3 27
2017-10-29 12:00:00 20.2 4 Este 11 Nordeste 0 976.7 -0.2 36
2017-10-29 11:00:00 17.6 3 Nordeste 10 Noroeste 0 977.3 0.7 43
2017-10-29 10:00:00 16.9 3 Este 7 Este 0 977.2 0.7 46
2017-10-29 09:00:00 13.8 3 Este 10 Sudeste 0 976.9 0.4 58
2017-10-29 08:00:00 11.8 7 Sur 9 Sur 0 976.6 0.3 64
2017-10-29 07:00:00 11.1 4 Sur 6 Sur 0 976.5 0.5 67
2017-10-29 06:00:00 10.8 3 Sudoeste 6 Sudoeste 0 976.5 0.2 68
2017-10-29 05:00:00 11.7 5 Sudoeste 9 Sudoeste 0 976.3 -0.4 65
2017-10-29 04:00:00 12.3 4 Sudoeste 6 Sudoeste 0 976 -1 63
2017-10-29 03:00:00 13.1 5 Sudoeste 6 Sudoeste 0 976.3 -0.7 61
2017-10-29 02:00:00 13.7 4 Sudoeste 7 Sudoeste 0 976.7 -0.3 58
2017-10-29 01:00:00 13.9 4 Sudoeste 9 Sudoeste 0 977 0.3 54
2017-10-29 00:00:00 15.1 4 Sudoeste 6 Sudoeste 0 977 0.5 50
2017-10-28 23:00:00 16.1 5 Sudoeste 6 Sudoeste 0 976.8 0.4 47
2017-10-28 22:00:00 16.9 3 Sudoeste 7 Sudeste 0 976.7 0.8 45
2017-10-28 21:00:00 18.1 5 Sudeste 7 Sudeste 0 976.5 0.6 40
2017-10-28 20:00:00 20.4 3 Sudeste 11 Nordeste 0 976.4 0.4 34
2017-10-28 19:00:00 24.3 8 Nordeste 17 Norte 0 975.9 -0.5 27
2017-10-28 18:00:00 26 10 Nordeste 21 Nordeste 0 975.9 -1.1 24
2017-10-28 17:00:00 26.5 11 Norte 21 Nordeste 0 976 -1.7 24
2017-10-28 16:00:00 26.7 9 Nordeste 19 Nordeste 0 976.4 -2.2 23
2017-10-28 15:00:00 26.1 12 Norte 17 Norte 0 977 -1.9 23
2017-10-28 14:00:00 25.1 8 Nordeste 19 Este 0 977.7 -1.2 23
2017-10-28 13:00:00 22.8 5 Nordeste 15 Nordeste 0 978.6 -0.3 28
2017-10-28 12:00:00 20.9 9 Nordeste 14 Sudeste 0 978.9 0.3 34
2017-10-28 11:00:00 19.4 9 Este 19 Este 0 978.9 0.6 38
2017-10-28 10:00:00 16.9 7 Sudeste 14 Este 0 978.9 0.8 44
2017-10-28 09:00:00 14.2 2 Norte 8 Sudeste 0 978.6 0.6 51
2017-10-28 08:00:00 13.7 3 Sudoeste 9 Oeste 0 978.3 0.3 53
2017-10-28 07:00:00 14.5 2 Sur 8 Sudoeste 0 978.1 -0.3 49
2017-10-28 06:00:00 15.8 5 Sudoeste 10 Oeste 0 978 -0.7 44
2017-10-28 05:00:00 15.6 6 Sudoeste 9 Sudoeste 0 978 -1.2 45
2017-10-28 04:00:00 15.8 3 Oeste 9 Oeste 0 978.4 -1.2 44
2017-10-28 03:00:00 17.5 5 Sudoeste 8 Sudoeste 0 978.7 -1.3 39
2017-10-28 02:00:00 17 5 Sudoeste 9 Sudoeste 0 979.2 -0.8 41
2017-10-28 01:00:00 17.5 5 Sudoeste 8 Sudoeste 0 979.6 -0.4 40
2017-10-28 00:00:00 17.9 5 Sudoeste 10 Sur 0 980 0.1 40
2017-10-27 23:00:00 19.3 7 Sudoeste 10 Sudoeste 0 980 0.3 37
2017-10-27 22:00:00 21.3 8 Oeste 10 Oeste 0 980 0.3 32
2017-10-27 21:00:00 21.5 6 Oeste 9 Sudoeste 0 979.9 0.1 31
2017-10-27 20:00:00 23.4 5 Sudoeste 10 Nordeste 0 979.7 -0.2 28
2017-10-27 19:00:00 27.5 6 Nordeste 23 Nordeste 0 979.7 -0.5 22
2017-10-27 18:00:00 29.4 10 Norte 23 Norte 0 979.8 -1.2 20
2017-10-27 17:00:00 29.6 12 Nordeste 21 Nordeste 0 979.9 -1.9 20
2017-10-27 16:00:00 29.2 11 Nordeste 21 Nordeste 0 980.2 -2.2 21
2017-10-27 15:00:00 28.4 7 Nordeste 16 Norte 0 981 -1.5 23
2017-10-27 14:00:00 26.1 5 Norte 11 Noroeste 0 981.8 -0.6 27
2017-10-27 13:00:00 23.6 5 Nordeste 12 Nordeste 0 982.4 0.5 32
2017-10-27 12:00:00 20.8 4 Nordeste 8 Este 0 982.5 1.2 38
2017-10-27 11:00:00 19.6 5 Este 11 Sudeste 0 982.4 1.3 40
2017-10-27 10:00:00 17.4 6 Sudeste 11 Sudeste 0 981.9 1 46
2017-10-27 09:00:00 14.1 4 Sur 10 Sudeste 0 981.3 0.6 55
2017-10-27 08:00:00 15.5 4 Este 12 Sudeste 0 981.1 0.4 50
2017-10-27 07:00:00 14.8 5 Sudeste 8 Sudeste 0 980.9 0 52
2017-10-27 06:00:00 13.9 4 Oeste 10 Sudeste 0 980.7 -0.3 54
2017-10-27 05:00:00 17.9 7 Sudeste 12 Sudeste 0 980.7 -0.6 43
2017-10-27 04:00:00 17.4 7 Sudeste 12 Sudeste 0 980.9 -0.6 45
2017-10-27 03:00:00 17.1 4 Sur 8 Sudeste 0 981 -0.5 45
2017-10-27 02:00:00 15.8 3 Sur 7 Sudoeste 0 981.3 0 48
2017-10-27 01:00:00 16.8 2 Sudoeste 7 Sudoeste 0 981.5 0.5 45
2017-10-27 00:00:00 17.5 3 Sur 8 Sudeste 0 981.5 0.7 43
2017-10-26 23:00:00 18.3 4 Sur 9 Sudeste 0 981.3 1.1 42
2017-10-26 22:00:00 18.4 5 Sur 7 Sur 0 981 1.3 42
2017-10-26 21:00:00 19.2 4 Sur 8 Sudoeste 0 980.8 1.4 36
2017-10-26 20:00:00 21.3 4 Sudoeste 9 Norte 0 980.2 0.8 31
2017-10-26 19:00:00 26.2 7 Nordeste 14 Nordeste 0 979.7 0.2 23
2017-10-26 18:00:00 27.8 8 Norte 17 Nordeste 0 979.4 -0.6 22
2017-10-26 17:00:00 27.9 10 Norte 18 Norte 0 979.4 -1.2 23
2017-10-26 16:00:00 27.5 6 Nordeste 15 Norte 0 979.5 -1.6 25
2017-10-26 15:00:00 26.8 8 Este 18 Nordeste 0 980 -1.1 27
2017-10-26 14:00:00 25.3 8 Este 13 Este 0 980.6 -0.4 32
2017-10-26 13:00:00 23.5 9 Este 13 Este 0 981.1 0.5 39
2017-10-26 12:00:00 20.6 6 Nordeste 10 Este 0 981.1 1.2 50
2017-10-26 11:00:00 15.7 2 Norte 4 Norte 0 981 1.5 62
2017-10-26 10:00:00 12.9 0 Calma 7 Oeste 0 980.6 1.4 72
2017-10-26 09:00:00 12.1 3 Noroeste 6 Sudoeste 0 979.9 1 79
2017-10-26 08:00:00 13.4 0 Calma 6 Sur 0 979.5 0.6 77
2017-10-26 07:00:00 13.5 3 Sur 6 Sudoeste 0 979.2 0.2 72
2017-10-26 06:00:00 13.5 4 Sur 7 Sudeste 0 978.9 0.1 65
2017-10-26 05:00:00 13.3 2 Sudeste 6 Sudoeste 0 978.9 0.2 65
2017-10-26 04:00:00 14.6 4 Sudeste 13 Norte 0 979 0.3 57
2017-10-26 03:00:00 17.4 4 Noroeste 10 Sudoeste 0 978.8 0.3 56
2017-10-26 02:00:00 20 10 Sudoeste 32 Sudoeste 0 978.7 0.8 50
2017-10-26 01:00:00 21.3 22 Sudoeste 30 Sudoeste 0 978.7 1.2 44
2017-10-26 00:00:00 22.1 15 Sudoeste 25 Sudoeste 0 978.5 1.6 35
2017-10-25 23:00:00 20.2 8 Sur 13 Sur 0 977.9 1.1 32
2017-10-25 22:00:00 19.7 9 Sur 14 Sur 0 977.5 1 33
2017-10-25 21:00:00 20.8 10 Sur 14 Sur 0 976.9 0.8 31
2017-10-25 20:00:00 22 12 Sudeste 14 Sudeste 0 976.8 0.8 29
2017-10-25 19:00:00 26 10 Sur 21 Sudeste 0 976.5 0.4 23
2017-10-25 18:00:00 27.7 10 Sur 23 Sudeste 0 976.1 -0.4 20
2017-10-25 17:00:00 27.9 12 Sur 26 Sudeste 0 976 -1.1 19
2017-10-25 16:00:00 27.5 12 Sudeste 26 Sudeste 0 976.1 -1.4 21
2017-10-25 15:00:00 26.8 15 Sudeste 34 Sur 0 976.5 -1.3 20
2017-10-25 14:00:00 26.8 16 Sudeste 32 Sudeste 0 977.1 -0.6 22
2017-10-25 13:00:00 25.1 18 Este 27 Sudeste 0 977.5 0.2 29
2017-10-25 12:00:00 22.4 14 Este 21 Sudeste 0 977.8 1.1 35
2017-10-25 11:00:00 19.3 10 Este 16 Este 0 977.7 1.1 41
2017-10-25 10:00:00 13.6 3 Sudeste 6 Sudeste 0 977.3 0.8 60
2017-10-25 09:00:00 10.3 3 Sudoeste 5 Sudoeste 0 976.7 0.3 69
2017-10-25 08:00:00 11 0 Calma 5 Sudoeste 0 976.6 0.2 65
2017-10-25 07:00:00 11.1 2 Sur 4 Sudoeste 0 976.5 0 60
2017-10-25 06:00:00 11.6 3 Oeste 9 Noroeste 0 976.4 -0.1 60
2017-10-25 05:00:00 12.9 6 Noroeste 8 Noroeste 0 976.4 -0.2 55
2017-10-25 04:00:00 13.8 3 Noroeste 5 Oeste 0 976.5 -0.2 49
2017-10-25 03:00:00 14.1 0 Calma 8 Noroeste 0 976.5 -0.1 48
2017-10-25 02:00:00 13.6 4 Oeste 7 Oeste 0 976.6 0.1 49
2017-10-25 01:00:00 15.1 2 Oeste 6 Sudeste 0 976.7 0.5 44
2017-10-25 00:00:00 16.7 3 Sur 5 Sur 0 976.6 0.5 41